createdAt,value
2023-04-30T00:04:32.388Z,9.15
2023-04-30T00:09:57.851Z,9.03
2023-04-30T00:15:24.105Z,8.95
2023-04-30T00:20:52.712Z,8.86
2023-04-30T00:26:18.746Z,8.78
2023-04-30T00:31:46.836Z,8.67
2023-04-30T00:37:13.289Z,8.59
2023-04-30T00:42:39.177Z,8.53
2023-04-30T00:48:05.216Z,8.44
2023-04-30T00:53:30.140Z,8.36
2023-04-30T00:58:57.672Z,8.31
2023-04-30T01:04:21.599Z,8.29
2023-04-30T01:09:47.120Z,8.27
2023-04-30T01:15:52.061Z,8.25
2023-04-30T01:21:21.035Z,8.23
2023-04-30T01:26:53.150Z,8.22
2023-04-30T01:32:20.743Z,8.16
2023-04-30T01:38:16.427Z,8.12
2023-04-30T01:49:43.794Z,8.02
2023-04-30T01:55:22.031Z,7.93
2023-04-30T02:00:50.258Z,7.91
2023-04-30T02:06:16.918Z,7.85
2023-04-30T02:11:44.416Z,7.88
2023-04-30T02:17:10.896Z,7.91
2023-04-30T02:22:36.807Z,7.91
2023-04-30T02:28:04.540Z,7.94
2023-04-30T02:33:31.560Z,7.98
2023-04-30T02:38:55.803Z,8.07
2023-04-30T02:44:20.035Z,8.12
2023-04-30T02:49:45.984Z,8.14
2023-04-30T02:55:12.255Z,8.09
2023-04-30T03:00:36.924Z,7.91
2023-04-30T03:06:02.073Z,7.68
2023-04-30T03:11:26.889Z,7.54
2023-04-30T03:16:51.475Z,7.40
2023-04-30T03:22:16.955Z,7.31
2023-04-30T03:27:44.640Z,7.29
2023-04-30T03:33:12.372Z,7.25
2023-04-30T03:38:38.923Z,7.17
2023-04-30T03:44:05.832Z,7.22
2023-04-30T03:49:32.620Z,7.30
2023-04-30T03:54:56.713Z,7.33
2023-04-30T04:00:23.572Z,7.34
2023-04-30T04:05:52.288Z,7.35
2023-04-30T04:11:19.810Z,7.32
2023-04-30T04:16:47.038Z,7.33
2023-04-30T04:22:12.089Z,7.37
2023-04-30T04:27:38.341Z,7.40
2023-04-30T04:33:04.726Z,7.48
2023-04-30T04:38:29.235Z,7.49
2023-04-30T04:43:57.545Z,7.53
2023-04-30T04:49:25.060Z,7.55
2023-04-30T04:54:52.423Z,7.60
2023-04-30T05:00:19.821Z,7.60
2023-04-30T05:05:45.944Z,7.57
2023-04-30T05:11:14.924Z,7.59
2023-04-30T05:16:41.959Z,7.70
2023-04-30T05:22:08.228Z,7.74
2023-04-30T05:27:35.542Z,7.74
2023-04-30T05:33:02.301Z,7.84
2023-04-30T05:38:28.747Z,7.95
2023-04-30T05:43:57.556Z,8.11
2023-04-30T05:49:26.530Z,8.37
2023-04-30T05:54:54.400Z,8.46
2023-04-30T06:00:20.845Z,8.41
2023-04-30T06:05:50.853Z,8.56
2023-04-30T06:11:17.998Z,8.73
2023-04-30T06:16:45.858Z,8.94
2023-04-30T06:22:11.400Z,8.99
2023-04-30T06:27:37.046Z,9.17
2023-04-30T06:33:02.317Z,9.29
2023-04-30T06:38:27.208Z,9.36
2023-04-30T06:43:51.893Z,9.55
2023-04-30T06:49:15.964Z,9.73
2023-04-30T06:54:41.467Z,9.68
2023-04-30T07:00:09.086Z,9.65
2023-04-30T07:05:34.237Z,9.65
2023-04-30T07:10:58.878Z,9.79
2023-04-30T07:16:25.826Z,9.85
2023-04-30T07:21:50.297Z,9.82
2023-04-30T07:27:15.316Z,9.91
2023-04-30T07:32:41.812Z,9.99
2023-04-30T07:38:06.766Z,10.26
2023-04-30T07:43:32.006Z,10.29
2023-04-30T07:48:56.531Z,10.37
2023-04-30T07:54:20.720Z,10.56
2023-04-30T07:59:46.039Z,11.01
2023-04-30T08:05:11.098Z,11.34
2023-04-30T08:10:35.798Z,11.36
2023-04-30T08:15:59.753Z,11.48
2023-04-30T08:21:24.230Z,11.67
2023-04-30T08:26:48.743Z,11.78
2023-04-30T08:32:13.370Z,11.90
2023-04-30T08:37:38.269Z,11.91
2023-04-30T08:43:06.608Z,11.96
2023-04-30T08:48:31.693Z,12.01
2023-04-30T08:53:58.177Z,11.99
2023-04-30T08:59:22.475Z,12.14
2023-04-30T09:04:48.917Z,12.26
2023-04-30T09:10:21.621Z,12.43
2023-04-30T09:15:52.506Z,12.56
2023-04-30T09:21:17.378Z,12.61
2023-04-30T09:26:41.729Z,12.81
2023-04-30T09:32:10.277Z,12.96
2023-04-30T09:37:41.470Z,13.09
2023-04-30T09:43:06.691Z,13.10
2023-04-30T09:48:32.112Z,13.09
2023-04-30T09:53:56.820Z,13.10
2023-04-30T09:59:26.301Z,13.32
2023-04-30T10:04:56.904Z,13.18
2023-04-30T10:10:22.184Z,13.03
2023-04-30T10:15:54.641Z,13.07
2023-04-30T10:21:21.609Z,13.11
2023-04-30T10:26:46.742Z,13.32
2023-04-30T10:32:13.292Z,13.48
2023-04-30T10:37:46.874Z,13.48
2023-04-30T10:43:12.342Z,13.50
2023-04-30T10:48:36.914Z,13.59
2023-04-30T10:54:01.622Z,13.72
2023-04-30T10:59:25.562Z,13.97
2023-04-30T11:05:08.306Z,14.20
2023-04-30T11:10:36.109Z,14.37
2023-04-30T11:16:04.961Z,14.34
2023-04-30T11:21:32.428Z,14.50
2023-04-30T11:27:06.924Z,14.71
2023-04-30T11:32:36.359Z,15.00
2023-04-30T11:38:00.783Z,15.10
2023-04-30T11:43:29.708Z,15.25
2023-04-30T11:48:54.828Z,15.47
2023-04-30T11:54:19.857Z,15.75
2023-04-30T11:59:44.423Z,15.94
2023-04-30T12:05:17.395Z,16.07
2023-04-30T12:10:42.027Z,16.21
2023-04-30T12:16:06.056Z,16.09
2023-04-30T12:21:31.668Z,15.99
2023-04-30T12:26:56.220Z,16.27
2023-04-30T12:32:21.378Z,16.61
2023-04-30T12:37:46.514Z,16.72
2023-04-30T12:43:10.638Z,16.60
2023-04-30T12:48:47.769Z,16.47
2023-04-30T12:54:13.501Z,16.76
2023-04-30T12:59:40.250Z,16.63
2023-04-30T13:05:04.914Z,16.85
2023-04-30T13:10:29.074Z,17.42
2023-04-30T13:15:53.504Z,17.39
2023-04-30T13:21:17.655Z,17.31
2023-04-30T13:26:42.790Z,16.93
2023-04-30T13:32:07.122Z,16.68
2023-04-30T13:37:33.840Z,16.60
2023-04-30T13:42:58.029Z,16.61
2023-04-30T13:48:22.637Z,16.96
2023-04-30T13:53:46.835Z,17.20
2023-04-30T13:59:12.117Z,17.24
2023-04-30T14:04:38.426Z,17.62
2023-04-30T14:10:03.233Z,17.98
2023-04-30T14:15:30.806Z,18.20
2023-04-30T14:20:54.993Z,18.38
2023-04-30T14:26:19.524Z,18.21
2023-04-30T14:31:45.782Z,18.07
2023-04-30T14:37:10.579Z,17.98
2023-04-30T14:42:34.919Z,17.61
2023-04-30T14:47:59.037Z,17.30
2023-04-30T14:53:23.197Z,17.08
2023-04-30T14:58:47.235Z,17.07
2023-04-30T15:04:12.124Z,17.62
2023-04-30T15:09:36.632Z,17.73
2023-04-30T15:15:01.560Z,17.64
2023-04-30T15:20:25.794Z,17.41
2023-04-30T15:25:50.129Z,17.37
2023-04-30T15:31:14.530Z,17.09
2023-04-30T15:36:40.064Z,17.07
2023-04-30T15:42:04.529Z,16.96
2023-04-30T15:47:28.894Z,17.03
2023-04-30T15:52:53.234Z,16.87
2023-04-30T15:58:17.516Z,16.59
2023-04-30T16:03:42.039Z,16.61
2023-04-30T16:09:09.069Z,16.59
2023-04-30T16:14:33.495Z,16.86
2023-04-30T16:19:57.841Z,17.28
2023-04-30T16:25:22.968Z,17.13
2023-04-30T16:30:46.801Z,17.55
2023-04-30T16:36:11.696Z,17.73
2023-04-30T16:41:36.641Z,17.76
2023-04-30T16:47:01.232Z,17.99
2023-04-30T16:52:25.909Z,18.08
2023-04-30T16:57:51.012Z,18.40
2023-04-30T17:03:14.928Z,18.31
2023-04-30T17:08:40.728Z,17.68
2023-04-30T17:14:05.547Z,18.20
2023-04-30T17:19:30.022Z,18.41
2023-04-30T17:24:54.504Z,18.08
2023-04-30T17:30:20.260Z,17.80
2023-04-30T17:35:44.819Z,17.80
2023-04-30T17:41:09.068Z,17.38
2023-04-30T17:46:34.047Z,17.07
2023-04-30T17:52:01.425Z,16.84
2023-04-30T17:57:26.286Z,16.92
2023-04-30T18:02:51.492Z,16.97
2023-04-30T18:08:16.044Z,16.79
2023-04-30T18:13:40.841Z,16.49
2023-04-30T18:19:06.067Z,16.23
2023-04-30T18:24:30.922Z,15.91
2023-04-30T18:29:57.128Z,15.56
2023-04-30T18:35:22.485Z,15.22
2023-04-30T18:40:46.812Z,14.84
2023-04-30T18:46:10.821Z,14.37
2023-04-30T18:51:36.084Z,13.84
2023-04-30T18:57:00.497Z,13.50
2023-04-30T19:02:24.852Z,13.21
2023-04-30T19:07:49.363Z,12.99
2023-04-30T19:13:13.690Z,12.81
2023-04-30T19:18:38.997Z,12.61
2023-04-30T19:24:05.846Z,12.39
2023-04-30T19:29:31.189Z,12.11
2023-04-30T19:34:55.687Z,11.74
2023-04-30T19:40:19.862Z,11.39
2023-04-30T19:46:02.682Z,11.07
2023-04-30T19:51:27.805Z,10.80
2023-04-30T19:56:53.568Z,10.55
2023-04-30T20:02:17.937Z,10.36
2023-04-30T20:07:44.224Z,10.24
2023-04-30T20:13:10.201Z,10.13
2023-04-30T20:18:35.494Z,9.98
2023-04-30T20:24:00.593Z,9.81
2023-04-30T20:29:26.154Z,9.62
2023-04-30T20:34:55.342Z,9.40
2023-04-30T20:40:22.245Z,9.30
2023-04-30T20:45:49.182Z,9.23
2023-04-30T20:51:16.581Z,9.09
2023-04-30T20:56:48.144Z,8.95
2023-04-30T21:02:23.966Z,8.78
2023-04-30T21:07:49.269Z,8.62
2023-04-30T21:13:15.550Z,8.48
2023-04-30T21:18:40.027Z,8.32
2023-04-30T21:24:05.353Z,8.20
2023-04-30T21:29:29.806Z,8.08
2023-04-30T21:34:55.701Z,7.90
2023-04-30T21:40:19.833Z,7.73
2023-04-30T21:45:44.339Z,7.53
2023-04-30T21:51:15.560Z,7.39
2023-04-30T21:56:41.514Z,7.27
2023-04-30T22:02:19.974Z,7.12
2023-04-30T22:07:49.022Z,6.99
2023-04-30T22:13:13.346Z,6.87
2023-04-30T22:18:37.775Z,6.76
2023-04-30T22:24:01.812Z,6.64
2023-04-30T22:29:25.896Z,6.49
2023-04-30T22:34:51.066Z,6.37
2023-04-30T22:40:17.033Z,6.29
2023-04-30T22:45:41.424Z,6.16
2023-04-30T22:51:06.341Z,6.04
2023-04-30T22:56:31.051Z,5.95
2023-04-30T23:01:55.262Z,5.91
2023-04-30T23:07:19.293Z,5.79
2023-04-30T23:12:44.268Z,5.66
2023-04-30T23:18:08.762Z,5.53
2023-04-30T23:23:34.019Z,5.45
2023-04-30T23:28:58.319Z,5.42
2023-04-30T23:34:23.098Z,5.38
2023-04-30T23:39:47.183Z,5.29
2023-04-30T23:45:12.729Z,5.18
2023-04-30T23:50:38.426Z,5.07
2023-04-30T23:56:03.413Z,4.94
